createdAt,value
2023-03-22T00:02:10.316Z,84.42
2023-03-22T00:04:36.938Z,84.35
2023-03-22T00:07:03.565Z,84.06
2023-03-22T00:09:30.870Z,84.73
2023-03-22T00:11:57.519Z,85.28
2023-03-22T00:14:24.283Z,85.44
2023-03-22T00:16:51.103Z,85.62
2023-03-22T00:19:17.742Z,85.29
2023-03-22T00:21:44.959Z,84.89
2023-03-22T00:24:11.622Z,85.31
2023-03-22T00:26:38.263Z,84.80
2023-03-22T00:29:05.650Z,85.07
2023-03-22T00:31:32.479Z,84.85
2023-03-22T00:33:59.130Z,84.53
2023-03-22T00:36:26.032Z,83.91
2023-03-22T00:38:52.698Z,83.97
2023-03-22T00:41:21.823Z,83.68
2023-03-22T00:43:50.270Z,83.36
2023-03-22T00:46:19.889Z,82.96
2023-03-22T00:48:46.938Z,83.44
2023-03-22T00:51:14.575Z,83.52
2023-03-22T00:53:43.356Z,83.30
2023-03-22T00:56:13.939Z,83.29
2023-03-22T00:58:42.132Z,82.58
2023-03-22T01:01:09.288Z,83.14
2023-03-22T01:03:36.142Z,82.77
2023-03-22T01:06:03.639Z,83.26
2023-03-22T01:08:33.439Z,82.79
2023-03-22T01:11:01.378Z,82.39
2023-03-22T01:13:29.057Z,82.44
2023-03-22T01:15:56.271Z,82.44
2023-03-22T01:18:23.018Z,82.86
2023-03-22T01:20:49.789Z,82.83
2023-03-22T01:23:16.509Z,82.53
2023-03-22T01:25:43.181Z,82.35
2023-03-22T01:28:09.889Z,82.77
2023-03-22T01:30:38.639Z,82.47
2023-03-22T01:33:07.577Z,82.51
2023-03-22T01:35:36.041Z,82.57
2023-03-22T01:38:03.184Z,83.11
2023-03-22T01:40:29.893Z,82.52
2023-03-22T01:42:56.885Z,83.16
2023-03-22T01:45:50.601Z,83.14
2023-03-22T01:48:28.114Z,83.16
2023-03-22T01:51:24.859Z,83.76
2023-03-22T01:54:04.009Z,83.32
2023-03-22T01:56:34.690Z,84.67
2023-03-22T01:59:02.191Z,84.66
2023-03-22T02:01:30.312Z,85.06
2023-03-22T02:04:20.124Z,85.76
2023-03-22T02:06:48.276Z,86.20
2023-03-22T02:09:22.048Z,87.34
2023-03-22T02:12:12.279Z,86.80
2023-03-22T02:15:15.578Z,86.74
2023-03-22T02:18:23.845Z,86.23
2023-03-22T02:21:18.653Z,86.68
2023-03-22T02:24:23.523Z,86.57
2023-03-22T02:27:22.680Z,86.50
2023-03-22T02:30:18.031Z,85.84
2023-03-22T02:33:35.833Z,84.64
2023-03-22T02:36:49.000Z,84.95
2023-03-22T03:10:41.491Z,86.69
2023-03-22T03:13:17.016Z,85.93
2023-03-22T03:15:52.682Z,85.71
2023-03-22T03:18:48.524Z,85.11
2023-03-22T03:21:42.437Z,85.14
2023-03-22T03:24:38.974Z,85.51
2023-03-22T03:27:20.162Z,85.04
2023-03-22T03:30:00.530Z,84.88
2023-03-22T03:32:35.158Z,85.02
2023-03-22T03:35:10.300Z,84.19
2023-03-22T03:37:52.599Z,84.22
2023-03-22T03:40:28.027Z,83.56
2023-03-22T03:42:57.883Z,83.59
2023-03-22T03:45:25.475Z,83.71
2023-03-22T03:47:57.284Z,83.80
2023-03-22T03:50:25.839Z,83.85
2023-03-22T03:52:54.315Z,83.77
2023-03-22T03:55:23.216Z,83.68
2023-03-22T03:57:49.937Z,84.13
2023-03-22T04:00:17.337Z,83.96
2023-03-22T04:02:44.495Z,84.19
2023-03-22T04:05:12.770Z,84.62
2023-03-22T04:07:39.678Z,85.11
2023-03-22T04:10:07.469Z,85.51
2023-03-22T04:12:34.363Z,85.63
2023-03-22T04:15:01.063Z,85.43
2023-03-22T04:17:32.075Z,85.14
2023-03-22T04:19:58.892Z,85.71
2023-03-22T04:22:26.344Z,88.05
2023-03-22T04:24:53.004Z,89.83
2023-03-22T04:27:22.217Z,90.44
2023-03-22T04:29:48.789Z,90.10
2023-03-22T04:32:16.911Z,90.36
2023-03-22T04:34:43.589Z,91.04
2023-03-22T04:37:10.263Z,90.83
2023-03-22T04:39:37.124Z,91.23
2023-03-22T04:42:03.882Z,91.27
2023-03-22T04:44:30.680Z,91.62
2023-03-22T04:46:57.564Z,91.22
2023-03-22T04:49:24.627Z,91.77
2023-03-22T04:51:51.853Z,90.77
2023-03-22T04:54:18.508Z,91.00
2023-03-22T04:56:45.275Z,91.55
2023-03-22T04:59:11.940Z,91.23
2023-03-22T05:01:40.541Z,91.66
2023-03-22T05:04:07.233Z,91.67
2023-03-22T05:06:34.282Z,91.41
2023-03-22T05:09:01.310Z,90.91
2023-03-22T05:11:28.154Z,90.90
2023-03-22T05:13:55.504Z,91.12
2023-03-22T05:16:22.493Z,91.60
2023-03-22T05:18:49.914Z,91.18
2023-03-22T05:21:21.981Z,91.27
2023-03-22T05:23:52.149Z,92.16
2023-03-22T05:26:20.545Z,92.01
2023-03-22T05:28:47.167Z,91.77
2023-03-22T05:31:15.547Z,91.21
2023-03-22T05:33:42.334Z,91.35
2023-03-22T05:36:11.244Z,90.79
2023-03-22T05:38:38.426Z,90.30
2023-03-22T05:41:05.765Z,90.23
2023-03-22T05:43:32.808Z,90.10
2023-03-22T05:45:59.688Z,89.89
2023-03-22T05:48:26.298Z,88.79
2023-03-22T05:50:52.913Z,88.43
2023-03-22T05:53:19.571Z,89.12
2023-03-22T05:55:46.199Z,89.81
2023-03-22T05:58:12.975Z,89.68
2023-03-22T06:00:40.294Z,89.81
2023-03-22T06:03:07.921Z,90.42
2023-03-22T06:05:36.612Z,91.09
2023-03-22T06:08:04.065Z,90.56
2023-03-22T06:10:30.937Z,90.39
2023-03-22T06:12:57.586Z,89.96
2023-03-22T06:15:24.341Z,89.52
2023-03-22T06:17:51.350Z,90.53
2023-03-22T06:20:18.300Z,90.10
2023-03-22T06:22:44.998Z,90.58
2023-03-22T06:25:11.849Z,89.86
2023-03-22T06:27:38.515Z,90.66
2023-03-22T06:30:06.342Z,90.84
2023-03-22T06:32:32.971Z,90.67
2023-03-22T06:35:15.634Z,89.84
2023-03-22T06:37:42.463Z,89.37
2023-03-22T06:40:09.999Z,88.52
2023-03-22T06:42:37.056Z,87.61
2023-03-22T06:45:04.656Z,86.28
2023-03-22T06:47:31.392Z,86.02
2023-03-22T06:49:58.215Z,85.47
2023-03-22T06:52:24.989Z,84.34
2023-03-22T06:54:51.597Z,83.97
2023-03-22T06:57:18.175Z,83.32
2023-03-22T06:59:44.712Z,81.15
2023-03-22T07:02:13.057Z,80.96
2023-03-22T07:04:39.661Z,81.11
2023-03-22T07:07:06.285Z,80.84
2023-03-22T07:09:32.898Z,80.76
2023-03-22T07:11:59.506Z,80.84
2023-03-22T07:14:26.226Z,81.27
2023-03-22T07:16:52.773Z,81.40
2023-03-22T07:19:19.433Z,80.88
2023-03-22T07:21:46.023Z,81.90
2023-03-22T07:24:13.840Z,82.08
2023-03-22T07:26:41.029Z,82.17
2023-03-22T07:29:07.644Z,82.19
2023-03-22T07:31:36.464Z,81.68
2023-03-22T07:34:04.040Z,80.72
2023-03-22T07:36:31.035Z,80.66
2023-03-22T07:38:58.021Z,80.47
2023-03-22T07:41:25.849Z,80.09
2023-03-22T07:43:58.249Z,79.61
2023-03-22T07:46:26.805Z,78.92
2023-03-22T07:48:53.471Z,78.24
2023-03-22T07:51:20.383Z,78.47
2023-03-22T07:53:47.098Z,78.45
2023-03-22T07:56:13.958Z,78.48
2023-03-22T07:58:40.728Z,78.37
2023-03-22T08:01:10.026Z,78.09
2023-03-22T08:03:37.666Z,79.13
2023-03-22T08:06:08.113Z,79.15
2023-03-22T08:08:36.997Z,78.79
2023-03-22T08:11:07.783Z,79.50
2023-03-22T08:13:34.536Z,79.68
2023-03-22T08:16:01.741Z,79.61
2023-03-22T08:18:28.392Z,78.82
2023-03-22T08:20:59.891Z,79.20
2023-03-22T08:23:40.524Z,78.87
2023-03-22T08:26:08.773Z,77.73
2023-03-22T08:28:35.604Z,77.25
2023-03-22T08:31:02.402Z,76.08
2023-03-22T08:33:29.107Z,76.85
2023-03-22T08:36:10.927Z,76.10
2023-03-22T08:38:37.802Z,74.76
2023-03-22T08:41:04.769Z,75.10
2023-03-22T08:43:31.406Z,74.98
2023-03-22T08:45:58.375Z,75.26
2023-03-22T08:48:25.330Z,73.48
2023-03-22T08:50:52.106Z,72.20
2023-03-22T08:53:18.726Z,72.70
2023-03-22T08:55:45.349Z,73.25
2023-03-22T08:58:16.557Z,71.39
2023-03-22T09:00:49.095Z,70.07
2023-03-22T09:03:17.077Z,70.06
2023-03-22T09:05:44.074Z,69.73
2023-03-22T09:08:18.646Z,69.53
2023-03-22T09:10:51.953Z,68.83
2023-03-22T09:13:19.980Z,68.43
2023-03-22T09:15:47.271Z,69.18
2023-03-22T09:18:14.636Z,69.04
2023-03-22T09:20:41.470Z,68.06
2023-03-22T09:23:08.237Z,66.41
2023-03-22T09:25:34.965Z,66.95
2023-03-22T09:28:02.215Z,66.26
2023-03-22T09:30:28.856Z,64.32
2023-03-22T09:32:55.596Z,63.92
2023-03-22T09:35:22.774Z,63.65
2023-03-22T09:37:49.550Z,63.78
2023-03-22T09:40:17.791Z,62.73
2023-03-22T09:42:48.077Z,63.84
2023-03-22T09:45:19.336Z,64.65
2023-03-22T09:47:48.924Z,65.41
2023-03-22T09:50:20.919Z,63.48
2023-03-22T09:52:48.026Z,62.11
2023-03-22T09:55:41.630Z,62.56
2023-03-22T09:58:37.535Z,63.23
2023-03-22T10:01:21.121Z,64.01
2023-03-22T10:04:22.070Z,60.53
2023-03-22T10:06:59.829Z,60.80
2023-03-22T10:09:35.282Z,60.33
2023-03-22T10:12:30.118Z,60.18
2023-03-22T10:15:10.494Z,59.67
2023-03-22T10:17:39.797Z,61.49
2023-03-22T10:20:28.704Z,62.56
2023-03-22T10:22:58.408Z,60.59
2023-03-22T10:25:37.206Z,57.40
2023-03-22T10:28:16.352Z,56.25
2023-03-22T10:30:45.270Z,56.74
2023-03-22T10:33:19.414Z,54.07
2023-03-22T10:35:47.055Z,56.16
2023-03-22T10:38:22.685Z,56.82
2023-03-22T10:40:50.988Z,57.14
2023-03-22T10:43:23.686Z,57.60
2023-03-22T10:45:53.296Z,58.71
2023-03-22T10:48:33.601Z,57.96
2023-03-22T10:51:01.294Z,56.88
2023-03-22T10:53:45.706Z,55.90
2023-03-22T10:56:15.807Z,56.84
2023-03-22T10:58:42.648Z,58.14
2023-03-22T11:01:12.714Z,58.91
2023-03-22T11:03:49.526Z,59.41
2023-03-22T11:06:23.438Z,60.55
2023-03-22T11:08:56.817Z,57.96
2023-03-22T11:11:45.225Z,58.68
2023-03-22T11:14:20.392Z,57.75
2023-03-22T11:17:14.126Z,55.37
2023-03-22T11:19:50.340Z,53.41
2023-03-22T11:22:37.731Z,54.50
2023-03-22T11:25:13.597Z,55.60
2023-03-22T11:27:51.181Z,55.40
2023-03-22T11:30:22.914Z,58.14
2023-03-22T11:32:59.210Z,57.41
2023-03-22T11:35:29.276Z,57.64
2023-03-22T11:37:56.602Z,54.02
2023-03-22T11:40:26.384Z,53.30
2023-03-22T11:42:56.476Z,54.08
2023-03-22T11:45:29.652Z,56.08
2023-03-22T11:48:06.596Z,56.95
2023-03-22T11:50:38.255Z,55.78
2023-03-22T11:53:12.219Z,54.49
2023-03-22T11:55:39.365Z,51.80
2023-03-22T11:58:06.761Z,51.95
2023-03-22T12:00:38.626Z,52.77
2023-03-22T12:03:13.844Z,54.36
2023-03-22T12:05:44.490Z,51.56
2023-03-22T12:08:33.419Z,52.81
2023-03-22T12:11:11.416Z,53.20
2023-03-22T12:13:54.496Z,52.38
2023-03-22T12:16:38.942Z,50.28
2023-03-22T12:19:41.583Z,52.77
2023-03-22T12:22:16.050Z,53.14
2023-03-22T12:24:43.122Z,50.35
2023-03-22T12:27:31.322Z,50.67
2023-03-22T12:30:04.101Z,48.42
2023-03-22T12:32:36.130Z,50.94
2023-03-22T12:35:16.731Z,49.11
2023-03-22T12:37:48.426Z,50.84
2023-03-22T12:40:27.337Z,49.74
2023-03-22T12:43:18.798Z,48.28
2023-03-22T12:45:49.972Z,48.52
2023-03-22T12:48:30.849Z,48.82
2023-03-22T12:51:05.545Z,50.17
2023-03-22T12:53:42.347Z,48.09
2023-03-22T12:56:16.355Z,50.52
2023-03-22T12:58:48.945Z,48.71
2023-03-22T13:01:56.791Z,47.02
2023-03-22T13:04:51.246Z,47.18
2023-03-22T13:07:52.089Z,49.46
2023-03-22T13:11:02.041Z,49.68
2023-03-22T13:13:42.169Z,49.89
2023-03-22T13:16:22.701Z,48.90
2023-03-22T13:19:17.324Z,49.11
2023-03-22T13:21:44.090Z,47.44
2023-03-22T13:24:15.362Z,49.17
2023-03-22T13:26:51.598Z,49.09
2023-03-22T13:29:36.215Z,46.77
2023-03-22T13:32:33.601Z,49.35
2023-03-22T13:35:00.867Z,48.13
2023-03-22T13:37:37.178Z,50.35
2023-03-22T13:40:22.117Z,50.85
2023-03-22T13:42:50.677Z,51.71
2023-03-22T13:45:33.331Z,51.78
2023-03-22T13:48:12.326Z,50.92
2023-03-22T13:50:40.038Z,48.24
2023-03-22T13:53:21.527Z,48.77
2023-03-22T13:56:07.353Z,47.27
2023-03-22T13:58:41.241Z,49.08
2023-03-22T14:01:16.584Z,49.27
2023-03-22T14:03:45.713Z,48.48
2023-03-22T14:06:31.805Z,48.75
2023-03-22T14:09:02.561Z,51.37
2023-03-22T14:11:43.882Z,51.04
2023-03-22T14:14:19.305Z,50.67
2023-03-22T14:16:51.557Z,48.30
2023-03-22T14:19:25.717Z,48.19
